createdAt,value
2022-09-07T00:00:23.403Z,11.05
2022-09-07T00:02:50.135Z,10.27
2022-09-07T00:05:16.918Z,9.55
2022-09-07T00:07:43.571Z,11.02
2022-09-07T00:10:10.339Z,11.95
2022-09-07T00:12:37.097Z,11.45
2022-09-07T00:15:08.293Z,10.30
2022-09-07T00:17:35.604Z,11.95
2022-09-07T00:20:03.900Z,11.70
2022-09-07T00:22:30.915Z,10.68
2022-09-07T00:24:57.636Z,10.45
2022-09-07T00:27:24.395Z,10.93
2022-09-07T00:29:51.066Z,10.60
2022-09-07T00:32:17.736Z,10.85
2022-09-07T00:34:44.545Z,11.52
2022-09-07T00:37:11.211Z,10.88
2022-09-07T00:39:37.933Z,9.93
2022-09-07T00:42:04.960Z,10.93
2022-09-07T00:45:02.129Z,10.93
2022-09-07T00:52:28.288Z,9.77
2022-09-07T00:54:59.241Z,10.13
2022-09-07T00:57:28.216Z,10.60
2022-09-07T00:59:57.534Z,10.43
2022-09-07T01:02:25.950Z,10.25
2022-09-07T01:05:02.918Z,10.70
2022-09-07T01:07:31.195Z,10.55
2022-09-07T01:09:58.203Z,10.98
2022-09-07T01:12:24.953Z,10.95
2022-09-07T01:14:53.002Z,10.35
2022-09-07T01:17:51.819Z,9.63
2022-09-07T01:20:19.541Z,10.73
2022-09-07T01:23:16.625Z,11.32
2022-09-07T01:25:58.644Z,10.43
2022-09-07T01:28:32.436Z,10.55
2022-09-07T01:31:19.523Z,10.15
2022-09-07T01:34:10.028Z,11.50
2022-09-07T01:36:50.568Z,12.18
2022-09-07T01:39:19.452Z,11.13
2022-09-07T01:41:58.833Z,11.38
2022-09-07T01:44:34.906Z,11.80
2022-09-07T01:47:08.362Z,11.25
2022-09-07T01:49:45.247Z,11.15
2022-09-07T01:52:36.646Z,11.80
2022-09-07T01:55:16.430Z,11.82
2022-09-07T01:57:52.547Z,12.15
2022-09-07T02:00:23.162Z,11.77
2022-09-07T02:02:55.640Z,11.73
2022-09-07T02:05:31.672Z,12.40
2022-09-07T02:08:09.652Z,11.35
2022-09-07T02:10:42.804Z,11.30
2022-09-07T02:13:14.140Z,10.95
2022-09-07T02:15:49.279Z,12.30
2022-09-07T02:18:16.065Z,12.63
2022-09-07T02:20:48.985Z,13.00
2022-09-07T02:23:26.047Z,12.43
2022-09-07T02:26:00.918Z,11.65
2022-09-07T02:28:32.875Z,12.02
2022-09-07T02:31:00.908Z,11.57
2022-09-07T02:33:28.654Z,12.65
2022-09-07T02:35:55.741Z,13.48
2022-09-07T02:38:22.953Z,13.55
2022-09-07T02:40:52.364Z,13.43
2022-09-07T02:43:20.846Z,14.43
2022-09-07T02:46:22.677Z,13.95
2022-09-07T02:49:09.187Z,14.75
2022-09-07T02:52:04.777Z,14.32
2022-09-07T02:54:46.694Z,13.77
2022-09-07T02:57:43.883Z,14.95
2022-09-07T03:02:55.470Z,12.73
2022-09-07T03:05:28.765Z,13.77
2022-09-07T03:08:02.635Z,14.48
2022-09-07T03:10:30.200Z,14.45
2022-09-07T03:12:56.965Z,15.45
2022-09-07T03:15:26.182Z,15.20
2022-09-07T03:17:53.686Z,14.80
2022-09-07T03:20:21.780Z,14.15
2022-09-07T03:22:50.655Z,14.38
2022-09-07T03:25:18.843Z,14.68
2022-09-07T03:27:45.488Z,14.60
2022-09-07T03:30:13.340Z,15.35
2022-09-07T03:32:40.327Z,14.38
2022-09-07T03:35:08.163Z,16.33
2022-09-07T03:37:36.895Z,16.08
2022-09-07T03:40:05.785Z,15.85
2022-09-07T03:42:32.644Z,14.15
2022-09-07T03:44:59.264Z,15.25
2022-09-07T03:47:25.962Z,15.32
2022-09-07T03:49:52.731Z,16.38
2022-09-07T03:52:19.406Z,15.85
2022-09-07T03:54:46.370Z,14.20
2022-09-07T03:57:13.434Z,12.77
2022-09-07T03:59:40.087Z,13.88
2022-09-07T04:02:06.915Z,13.30
2022-09-07T04:04:33.996Z,13.07
2022-09-07T04:07:00.721Z,14.60
2022-09-07T04:09:27.460Z,16.15
2022-09-07T04:11:54.131Z,16.58
2022-09-07T04:14:20.872Z,17.30
2022-09-07T04:16:47.674Z,16.67
2022-09-07T04:19:14.892Z,16.42
2022-09-07T04:21:44.306Z,19.73
2022-09-07T04:24:10.953Z,19.42
2022-09-07T04:26:38.033Z,21.85
2022-09-07T04:29:06.106Z,21.70
2022-09-07T04:31:35.499Z,21.98
2022-09-07T04:34:02.737Z,20.60
2022-09-07T04:36:29.625Z,21.75
2022-09-07T04:38:59.506Z,19.45
2022-09-07T04:41:27.187Z,22.80
2022-09-07T04:43:56.159Z,22.40
2022-09-07T04:46:25.311Z,22.15
2022-09-07T04:48:55.079Z,23.40
2022-09-07T04:51:24.225Z,24.15
2022-09-07T04:53:53.289Z,23.05
2022-09-07T04:56:21.280Z,20.98
2022-09-07T04:58:48.405Z,21.33
2022-09-07T05:01:18.138Z,22.00
2022-09-07T05:03:45.634Z,21.80
2022-09-07T05:06:12.767Z,21.25
2022-09-07T05:08:43.623Z,22.27
2022-09-07T05:11:11.575Z,20.95
2022-09-07T05:13:38.342Z,20.83
2022-09-07T05:16:10.442Z,20.95
2022-09-07T05:18:37.823Z,22.10
2022-09-07T05:21:08.602Z,21.63
2022-09-07T05:23:35.823Z,21.20
2022-09-07T05:26:04.705Z,21.13
2022-09-07T05:28:32.278Z,21.23
2022-09-07T05:31:17.453Z,21.65
2022-09-07T05:36:33.803Z,21.00
2022-09-07T05:39:00.446Z,19.60
2022-09-07T05:41:28.099Z,20.58
2022-09-07T05:46:42.064Z,19.90
2022-09-07T05:49:08.902Z,21.60
2022-09-07T05:51:37.085Z,20.30
2022-09-07T05:54:04.248Z,19.33
2022-09-07T05:56:34.431Z,20.00
2022-09-07T05:59:01.087Z,21.08
2022-09-07T06:01:31.769Z,26.38
2022-09-07T06:03:58.843Z,23.75
2022-09-07T06:06:28.808Z,24.73
2022-09-07T06:08:57.617Z,22.10
2022-09-07T06:11:27.028Z,21.80
2022-09-07T06:13:53.711Z,20.50
2022-09-07T06:16:20.891Z,20.70
2022-09-07T06:18:49.543Z,20.67
2022-09-07T06:21:19.807Z,22.00
2022-09-07T06:23:48.395Z,19.80
2022-09-07T06:26:16.632Z,17.80
2022-09-07T06:28:49.150Z,19.58
2022-09-07T06:31:20.494Z,18.88
2022-09-07T06:33:48.240Z,18.48
2022-09-07T06:36:17.567Z,18.48
2022-09-07T06:38:45.183Z,17.17
2022-09-07T06:43:59.410Z,16.98
2022-09-07T06:49:12.839Z,16.17
2022-09-07T06:51:39.528Z,16.33
2022-09-07T07:01:46.188Z,15.20
2022-09-07T07:04:13.344Z,16.85
2022-09-07T07:06:40.294Z,14.55
2022-09-07T07:09:08.925Z,15.45
2022-09-07T07:11:37.227Z,14.35
2022-09-07T07:14:04.426Z,14.48
2022-09-07T07:16:31.174Z,14.38
2022-09-07T07:18:58.031Z,14.43
2022-09-07T07:21:24.892Z,14.20
2022-09-07T07:23:53.137Z,15.13
2022-09-07T07:26:23.725Z,14.27
2022-09-07T07:31:26.995Z,14.98
2022-09-07T07:33:54.332Z,13.02
2022-09-07T07:36:24.264Z,14.45
2022-09-07T07:39:02.074Z,13.77
2022-09-07T07:44:18.751Z,13.63
2022-09-07T07:46:49.168Z,13.73
2022-09-07T07:49:16.070Z,13.73
2022-09-07T07:54:29.510Z,14.27
2022-09-07T07:56:56.135Z,14.25
2022-09-07T07:59:22.876Z,14.50
2022-09-07T08:01:51.930Z,13.43
2022-09-07T08:04:18.792Z,13.07
2022-09-07T08:06:45.422Z,13.05
2022-09-07T08:09:12.098Z,13.27
2022-09-07T08:11:40.274Z,12.88
2022-09-07T08:14:09.828Z,12.70
2022-09-07T08:16:37.719Z,12.82
2022-09-07T08:19:05.678Z,15.38
2022-09-07T08:21:32.277Z,13.77
2022-09-07T08:23:59.902Z,13.95
2022-09-07T08:26:27.284Z,13.68
2022-09-07T08:28:54.016Z,13.68
2022-09-07T08:31:20.885Z,13.70
2022-09-07T08:33:47.447Z,12.07
2022-09-07T08:36:17.786Z,10.68
2022-09-07T08:38:45.021Z,11.63
2022-09-07T08:41:27.492Z,12.93
2022-09-07T08:44:01.026Z,11.93
2022-09-07T08:46:31.383Z,12.23
2022-09-07T08:49:01.119Z,12.77
2022-09-07T08:51:46.440Z,11.95
2022-09-07T08:54:16.726Z,10.80
2022-09-07T08:59:55.449Z,10.30
2022-09-07T09:02:32.616Z,11.60
2022-09-07T09:05:18.872Z,10.57
2022-09-07T09:08:05.622Z,10.18
2022-09-07T09:13:15.929Z,10.93
2022-09-07T09:15:44.636Z,10.93
2022-09-07T09:18:21.934Z,10.65
2022-09-07T09:20:53.471Z,9.55
2022-09-07T09:23:24.699Z,10.07
2022-09-07T09:25:54.175Z,9.93
2022-09-07T09:28:21.362Z,10.27
2022-09-07T09:30:48.343Z,11.13
2022-09-07T09:33:19.724Z,10.85
2022-09-07T09:35:50.041Z,10.40
2022-09-07T09:38:34.810Z,10.75
2022-09-07T09:41:09.872Z,10.43
2022-09-07T09:43:51.763Z,10.47
2022-09-07T09:46:33.531Z,9.18
2022-09-07T09:49:13.907Z,9.75
2022-09-07T09:54:37.271Z,10.98
2022-09-07T09:57:04.050Z,10.02
2022-09-07T10:05:36.286Z,11.18
2022-09-07T10:08:17.663Z,11.05
2022-09-07T10:10:54.396Z,10.23
2022-09-07T10:13:23.483Z,10.75
2022-09-07T10:15:52.200Z,11.25
2022-09-07T10:18:28.007Z,10.27
2022-09-07T10:21:13.131Z,9.15
2022-09-07T10:23:40.374Z,9.50
2022-09-07T10:26:22.460Z,10.30
2022-09-07T10:31:42.472Z,9.10
2022-09-07T10:34:31.029Z,9.23
2022-09-07T10:37:05.534Z,9.02
2022-09-07T10:39:37.157Z,8.55
2022-09-07T10:42:26.344Z,9.15
2022-09-07T10:45:01.180Z,8.95
2022-09-07T10:47:52.319Z,8.63
2022-09-07T10:50:23.154Z,8.23
2022-09-07T10:53:40.116Z,7.55
2022-09-07T10:56:10.455Z,7.68
2022-09-07T10:59:02.343Z,8.55
2022-09-07T11:02:00.170Z,7.57
2022-09-07T11:04:51.466Z,6.93
2022-09-07T11:07:20.216Z,7.82
2022-09-07T11:09:56.302Z,7.57
2022-09-07T11:12:30.862Z,7.85
2022-09-07T11:15:18.703Z,7.65
2022-09-07T11:17:53.290Z,7.70
2022-09-07T11:20:34.183Z,7.72
2022-09-07T11:23:21.566Z,7.43
2022-09-07T11:26:19.182Z,7.47
2022-09-07T11:31:57.569Z,7.13
2022-09-07T11:34:41.088Z,7.65
2022-09-07T11:37:19.976Z,6.70
2022-09-07T11:39:53.682Z,6.45
2022-09-07T11:42:43.495Z,6.68
2022-09-07T11:45:28.770Z,7.07
2022-09-07T11:48:04.018Z,6.80
2022-09-07T11:50:35.419Z,6.28
2022-09-07T11:53:07.767Z,6.50
2022-09-07T11:55:39.544Z,5.47
2022-09-07T11:58:36.590Z,5.03
2022-09-07T12:01:33.665Z,5.80
2022-09-07T12:04:40.164Z,6.70
2022-09-07T12:07:15.128Z,6.30
2022-09-07T12:10:08.248Z,6.37
2022-09-07T12:13:05.445Z,6.20
2022-09-07T12:15:47.637Z,6.00
2022-09-07T12:18:21.761Z,6.32
2022-09-07T12:20:49.016Z,6.20
2022-09-07T12:23:15.578Z,5.72
2022-09-07T12:25:44.368Z,5.88
2022-09-07T12:28:50.791Z,6.70
2022-09-07T12:31:57.599Z,6.82
2022-09-07T12:34:33.614Z,6.25
2022-09-07T12:37:03.688Z,5.57
2022-09-07T12:39:33.036Z,5.68
2022-09-07T12:42:37.826Z,5.18
2022-09-07T12:45:44.269Z,6.10
2022-09-07T12:48:30.768Z,5.40
2022-09-07T12:51:59.367Z,5.65
2022-09-07T12:54:04.252Z,5.05
2022-09-07T12:59:56.435Z,4.80
2022-09-07T13:02:48.874Z,5.97
2022-09-07T13:05:28.744Z,5.45
2022-09-07T13:08:25.973Z,5.68
2022-09-07T13:10:52.731Z,5.40
2022-09-07T13:16:13.907Z,4.90
2022-09-07T13:18:43.762Z,4.50
2022-09-07T13:21:11.886Z,4.20
2022-09-07T13:23:40.340Z,4.60
2022-09-07T13:26:10.905Z,4.65
2022-09-07T13:28:40.481Z,4.68
2022-09-07T13:31:42.490Z,4.90
2022-09-07T13:34:39.584Z,4.82
2022-09-07T13:37:15.007Z,4.75
2022-09-07T13:39:45.809Z,4.82
2022-09-07T13:42:19.619Z,6.05
2022-09-07T13:44:56.298Z,5.82
2022-09-07T13:47:48.487Z,5.50
2022-09-07T13:50:34.269Z,4.95
2022-09-07T13:53:00.754Z,5.18
2022-09-07T13:55:45.597Z,5.35
2022-09-07T13:58:18.021Z,5.13
2022-09-07T14:00:55.478Z,5.18
2022-09-07T14:03:28.151Z,4.88
2022-09-07T14:06:14.667Z,5.07
2022-09-07T14:08:49.534Z,5.05
2022-09-07T14:11:27.673Z,5.30
2022-09-07T14:14:12.647Z,5.35
2022-09-07T14:16:42.532Z,4.70
2022-09-07T14:19:18.315Z,4.72
2022-09-07T14:24:29.538Z,4.97
2022-09-07T14:26:56.574Z,4.80
2022-09-07T14:29:26.672Z,4.78
2022-09-07T14:31:54.394Z,4.30
2022-09-07T14:34:24.752Z,4.13
2022-09-07T14:36:52.457Z,5.05
2022-09-07T14:39:22.280Z,4.57
2022-09-07T14:41:49.910Z,4.72
2022-09-07T14:44:34.067Z,4.82
2022-09-07T14:47:06.091Z,4.57
2022-09-07T14:49:33.329Z,4.43
2022-09-07T14:52:00.797Z,4.82
2022-09-07T14:54:31.702Z,4.78
2022-09-07T14:57:25.722Z,4.18
2022-09-07T14:59:53.813Z,4.88
2022-09-07T15:02:23.398Z,4.60
2022-09-07T15:05:18.944Z,4.88
2022-09-07T15:07:48.413Z,4.63
2022-09-07T15:10:28.939Z,4.75
2022-09-07T15:12:58.476Z,4.50
2022-09-07T15:15:27.622Z,4.50
2022-09-07T15:18:00.825Z,4.35
2022-09-07T15:20:35.295Z,4.63
2022-09-07T15:23:04.815Z,4.57
2022-09-07T15:25:32.870Z,5.15
2022-09-07T15:28:00.256Z,4.55
2022-09-07T15:30:27.423Z,5.07
2022-09-07T15:32:56.881Z,4.43
2022-09-07T15:35:23.923Z,4.97
2022-09-07T15:38:58.914Z,5.03
2022-09-07T15:41:03.847Z,4.97
2022-09-07T15:43:29.770Z,4.10
2022-09-07T15:45:56.477Z,4.47
2022-09-07T15:48:25.334Z,5.28
2022-09-07T15:51:02.522Z,6.20
2022-09-07T15:56:17.287Z,6.70
2022-09-07T15:58:46.586Z,6.32
2022-09-07T16:04:00.541Z,5.95
2022-09-07T16:06:27.279Z,6.28
2022-09-07T16:08:54.700Z,5.85
2022-09-07T16:11:24.276Z,5.90
2022-09-07T16:14:06.344Z,6.63
2022-09-07T16:19:28.031Z,6.05
2022-09-07T16:21:57.469Z,6.28
2022-09-07T16:24:24.389Z,6.53
2022-09-07T16:26:50.990Z,6.50
2022-09-07T16:29:17.903Z,6.57
2022-09-07T16:34:31.390Z,6.25
2022-09-07T16:36:58.084Z,6.10
2022-09-07T16:39:24.691Z,6.53
2022-09-07T16:41:51.383Z,6.50
2022-09-07T16:44:18.964Z,6.07
2022-09-07T16:46:45.498Z,5.93
2022-09-07T16:49:12.650Z,6.38
2022-09-07T16:51:40.133Z,6.88
2022-09-07T16:54:06.924Z,6.50
2022-09-07T16:56:38.313Z,6.78
2022-09-07T16:59:07.092Z,6.07
2022-09-07T17:01:37.987Z,6.22
2022-09-07T17:04:09.802Z,7.13
2022-09-07T17:06:37.268Z,6.97
2022-09-07T17:09:04.327Z,6.43
2022-09-07T17:11:33.343Z,6.53
2022-09-07T17:14:00.362Z,6.25
2022-09-07T17:16:32.081Z,5.75
2022-09-07T17:21:51.823Z,6.18
2022-09-07T17:24:19.715Z,6.65
2022-09-07T17:26:46.604Z,7.50
2022-09-07T17:29:13.512Z,6.97
2022-09-07T17:34:29.036Z,6.78
2022-09-07T17:36:55.735Z,7.30
2022-09-07T17:39:22.348Z,7.07
2022-09-07T17:41:52.666Z,7.30
2022-09-07T17:44:20.095Z,7.95
2022-09-07T17:46:46.699Z,7.82
2022-09-07T17:49:16.366Z,7.88
2022-09-07T17:51:44.247Z,7.80
2022-09-07T17:54:14.430Z,7.40
2022-09-07T17:56:41.804Z,7.50
2022-09-07T18:01:56.192Z,7.50
2022-09-07T18:04:26.261Z,7.75
2022-09-07T18:06:54.185Z,7.22
2022-09-07T18:09:24.252Z,7.50
2022-09-07T18:11:51.184Z,7.10
2022-09-07T18:14:19.006Z,7.70
2022-09-07T18:16:47.914Z,8.48
2022-09-07T18:19:15.827Z,7.63
2022-09-07T18:21:43.657Z,7.85
2022-09-07T18:24:16.929Z,7.88
2022-09-07T18:26:49.672Z,7.78
2022-09-07T18:29:28.786Z,7.72
2022-09-07T18:31:56.790Z,8.23
2022-09-07T18:34:24.040Z,7.88
2022-09-07T18:36:50.721Z,8.07
2022-09-07T18:39:17.684Z,7.88
2022-09-07T18:41:44.354Z,7.72
2022-09-07T18:47:00.663Z,7.10
2022-09-07T18:49:27.476Z,6.82
2022-09-07T18:54:41.924Z,6.60
2022-09-07T18:57:08.771Z,6.75
2022-09-07T18:59:35.615Z,6.30
2022-09-07T19:02:05.030Z,7.07
2022-09-07T19:07:21.545Z,5.93
2022-09-07T19:09:49.759Z,6.30
2022-09-07T19:12:16.419Z,6.32
2022-09-07T19:14:43.064Z,5.53
2022-09-07T19:17:11.841Z,5.85
2022-09-07T19:19:39.998Z,5.80
2022-09-07T19:22:06.574Z,6.40
2022-09-07T19:24:33.410Z,5.32
2022-09-07T19:27:01.131Z,5.78
2022-09-07T19:29:28.173Z,5.57
2022-09-07T19:32:11.304Z,5.85
2022-09-07T19:34:40.892Z,5.38
2022-09-07T19:37:10.134Z,6.13
2022-09-07T19:39:37.186Z,5.15
2022-09-07T19:42:05.315Z,4.75
2022-09-07T19:44:32.935Z,5.88
2022-09-07T19:47:00.448Z,5.70
2022-09-07T19:49:27.748Z,5.90
2022-09-07T19:51:54.663Z,5.82
2022-09-07T19:54:21.443Z,5.65
2022-09-07T19:56:48.291Z,5.40
2022-09-07T19:59:14.999Z,5.38
2022-09-07T20:01:46.055Z,6.15
2022-09-07T20:04:19.642Z,4.30
2022-09-07T20:06:49.791Z,5.47
2022-09-07T20:09:18.690Z,4.97
2022-09-07T20:11:47.502Z,5.32
2022-09-07T20:14:16.251Z,4.97
2022-09-07T20:16:43.793Z,5.38
2022-09-07T20:19:12.056Z,6.07
2022-09-07T20:21:38.627Z,5.05
2022-09-07T20:24:05.774Z,4.97
2022-09-07T20:26:32.741Z,5.20
2022-09-07T20:29:23.369Z,4.80
2022-09-07T20:31:47.239Z,5.28
2022-09-07T20:34:14.381Z,5.50
2022-09-07T20:36:41.260Z,4.90
2022-09-07T20:39:07.887Z,4.97
2022-09-07T20:41:34.725Z,5.22
2022-09-07T20:44:03.559Z,4.82
2022-09-07T20:46:31.224Z,5.40
2022-09-07T20:48:58.566Z,4.60
2022-09-07T20:51:25.818Z,5.95
2022-09-07T20:53:52.931Z,5.00
2022-09-07T20:56:22.342Z,5.40
2022-09-07T20:58:53.603Z,5.25
2022-09-07T21:01:21.269Z,5.28
2022-09-07T21:03:51.741Z,5.03
2022-09-07T21:06:19.409Z,5.65
2022-09-07T21:08:47.227Z,5.07
2022-09-07T21:11:19.921Z,4.80
2022-09-07T21:13:47.052Z,5.55
2022-09-07T21:16:16.457Z,5.35
2022-09-07T21:18:44.461Z,5.05
2022-09-07T21:21:20.361Z,5.50
2022-09-07T21:23:48.061Z,5.07
2022-09-07T21:26:15.216Z,5.32
2022-09-07T21:28:42.348Z,5.05
2022-09-07T21:31:09.556Z,5.03
2022-09-07T21:33:37.685Z,4.85
2022-09-07T21:36:08.085Z,5.47
2022-09-07T21:38:36.734Z,5.45
2022-09-07T21:41:13.866Z,5.65
2022-09-07T21:43:41.208Z,5.43
2022-09-07T21:46:12.367Z,5.18
2022-09-07T21:48:39.300Z,5.18
2022-09-07T21:51:06.754Z,5.32
2022-09-07T21:53:34.141Z,5.40
2022-09-07T21:56:05.097Z,5.80
2022-09-07T21:58:32.682Z,5.35
2022-09-07T22:01:08.253Z,5.32
2022-09-07T22:03:35.058Z,5.40
2022-09-07T22:06:05.117Z,5.50
2022-09-07T22:08:31.731Z,5.45
2022-09-07T22:11:18.481Z,5.10
2022-09-07T22:13:45.755Z,5.57
2022-09-07T22:16:13.347Z,5.63
2022-09-07T22:18:43.795Z,5.65
2022-09-07T22:21:13.455Z,5.95
2022-09-07T22:23:45.174Z,6.38
2022-09-07T22:26:13.647Z,5.22
2022-09-07T22:28:40.898Z,5.68
2022-09-07T22:31:10.331Z,5.47
2022-09-07T22:33:37.446Z,5.05
2022-09-07T22:36:17.448Z,5.97
2022-09-07T22:38:46.025Z,5.88
2022-09-07T22:41:15.554Z,5.82
2022-09-07T22:43:42.885Z,5.90
2022-09-07T22:46:10.459Z,5.57
2022-09-07T22:48:37.766Z,5.38
2022-09-07T22:51:05.318Z,5.60
2022-09-07T22:53:35.680Z,6.45
2022-09-07T22:56:08.191Z,5.93
2022-09-07T22:58:35.176Z,5.57
2022-09-07T23:01:02.061Z,5.20
2022-09-07T23:03:29.611Z,5.50
2022-09-07T23:05:57.084Z,5.57
2022-09-07T23:08:25.327Z,4.93
2022-09-07T23:10:52.966Z,5.78
2022-09-07T23:13:20.152Z,6.50
2022-09-07T23:15:47.556Z,6.53
2022-09-07T23:18:15.112Z,6.25
2022-09-07T23:20:42.119Z,6.20
2022-09-07T23:23:09.224Z,5.93
2022-09-07T23:25:38.283Z,6.07
2022-09-07T23:28:06.278Z,6.43
2022-09-07T23:30:35.466Z,5.45
2022-09-07T23:33:02.998Z,6.18
2022-09-07T23:35:30.138Z,6.45
2022-09-07T23:37:57.068Z,5.72
2022-09-07T23:40:24.121Z,6.35
2022-09-07T23:42:50.746Z,6.20
2022-09-07T23:45:17.494Z,6.90
2022-09-07T23:47:44.064Z,6.00
2022-09-07T23:50:11.116Z,6.10
2022-09-07T23:52:37.970Z,5.60
2022-09-07T23:55:05.403Z,6.25
2022-09-07T23:57:34.351Z,6.50
